Time;durP1;ratioP1;P1;durP2;ratioP2;P2;SDS_P1;SDS_P2;PMS_P1;PMS_P2;Temp;Humidity;BMP_temperature;BMP_pressure;BME280_temperature;BME280_humidity;BME280_pressure;Samples;Min_cycle;Max_cycle;Signal;HPM_P1;HPM_P2
2022/07/30 00:01:36;;;;;;;1.10;0.50;;;15.20;99.90;;;;;;4810886;29;20726;-90
2022/07/30 00:04:07;;;;;;;0.40;0.40;;;15.10;99.90;;;;;;4796128;29;20057;-90
2022/07/30 00:06:36;;;;;;;0.30;0.30;;;15.00;99.90;;;;;;4809336;29;20375;-90
2022/07/30 00:09:02;;;;;;;0.20;0.20;;;15.00;99.90;;;;;;4828521;29;20077;-90
2022/07/30 00:11:30;;;;;;;0.20;0.20;;;15.00;99.90;;;;;;4824587;29;20133;-90
2022/07/30 00:13:59;;;;;;;0.75;0.40;;;15.00;99.90;;;;;;4821197;29;20101;-90
2022/07/30 00:16:34;;;;;;;0.40;0.30;;;14.90;99.90;;;;;;4827714;29;20050;-94
2022/07/30 00:19:02;;;;;;;0.38;0.38;;;14.80;99.90;;;;;;4812857;29;20046;-90
2022/07/30 00:21:28;;;;;;;0.40;0.40;;;14.90;99.90;;;;;;4797788;29;20058;-91
2022/07/30 00:23:54;;;;;;;0.40;0.40;;;14.90;99.90;;;;;;4795127;29;20049;-90
2022/07/30 00:26:22;;;;;;;0.30;0.30;;;14.70;99.90;;;;;;4811849;29;20046;-90
2022/07/30 00:28:48;;;;;;;0.40;0.40;;;14.70;99.90;;;;;;4810661;29;20067;-90
2022/07/30 00:31:14;;;;;;;0.30;0.30;;;13.80;99.90;;;;;;4806012;29;20065;-90
2022/07/30 00:33:43;;;;;;;0.37;0.37;;;14.70;99.90;;;;;;4839391;29;20338;-90
2022/07/30 00:36:11;;;;;;;0.30;0.30;;;14.60;99.90;;;;;;4812505;29;20046;-90
2022/07/30 00:38:37;;;;;;;0.28;0.28;;;14.60;99.90;;;;;;4826945;29;20046;-93
2022/07/30 00:41:03;;;;;;;0.40;0.37;;;13.80;99.90;;;;;;4802871;29;20133;-90
2022/07/30 00:43:29;;;;;;;0.35;0.35;;;14.60;99.90;;;;;;4819721;29;20379;-91
2022/07/30 00:45:55;;;;;;;0.43;0.30;;;14.50;99.90;;;;;;4797881;29;20150;-90
2022/07/30 00:48:23;;;;;;;0.53;0.47;;;14.50;99.90;;;;;;4809331;29;20060;-90
2022/07/30 00:50:49;;;;;;;0.38;0.35;;;14.40;99.90;;;;;;4809431;29;20375;-91
2022/07/30 00:53:15;;;;;;;0.15;0.15;;;14.40;99.90;;;;;;4800033;29;20046;-90
2022/07/30 00:55:41;;;;;;;0.30;0.30;;;14.40;99.90;;;;;;4797793;29;20085;-90
2022/07/30 00:58:06;;;;;;;0.17;0.17;;;14.30;99.90;;;;;;4808609;29;20046;-90
2022/07/30 01:00:35;;;;;;;0.20;0.20;;;14.30;99.90;;;;;;4812690;29;20124;-92
2022/07/30 01:03:01;;;;;;;0.68;0.38;;;14.30;99.90;;;;;;4797076;29;20062;-90
2022/07/30 01:05:36;;;;;;;0.77;0.40;;;14.30;99.90;;;;;;4812466;29;20102;-90
2022/07/30 01:08:02;;;;;;;0.47;0.47;;;14.20;99.90;;;;;;4798360;29;20493;-90
2022/07/30 01:10:35;;;;;;;0.75;0.52;;;14.20;99.90;;;;;;4827355;29;20054;-91
2022/07/30 01:13:02;;;;;;;0.70;0.43;;;14.30;99.90;;;;;;4780356;29;20532;-91
2022/07/30 01:15:31;;;;;;;0.47;0.47;;;14.10;99.90;;;;;;4812023;29;20413;-90
2022/07/30 01:18:00;;;;;;;0.40;0.40;;;14.10;99.90;;;;;;4820721;29;20106;-91
2022/07/30 01:20:41;;;;;;;0.22;0.22;;;14.10;99.90;;;;;;4820512;29;20128;-90
2022/07/30 01:23:13;;;;;;;0.22;0.20;;;14.10;99.90;;;;;;4811357;29;20519;-90
2022/07/30 01:26:10;;;;;;;0.30;0.30;;;13.60;99.90;;;;;;4811106;29;20042;-91
2022/07/30 01:28:41;;;;;;;0.40;0.40;;;14.00;99.90;;;;;;4809104;29;20049;-94
2022/07/30 01:31:08;;;;;;;0.55;0.47;;;14.00;99.90;;;;;;4811822;29;20050;-91
2022/07/30 01:33:37;;;;;;;0.30;0.30;;;13.90;99.90;;;;;;4811869;29;20050;-90
2022/07/30 01:36:07;;;;;;;0.30;0.30;;;14.00;99.90;;;;;;4819103;29;20108;-90
2022/07/30 01:38:35;;;;;;;0.20;0.20;;;13.90;99.90;;;;;;4811386;29;20123;-90
2022/07/30 01:41:10;;;;;;;0.35;0.30;;;14.00;99.90;;;;;;4823335;29;20283;-91
2022/07/30 01:43:37;;;;;;;0.40;0.25;;;13.90;99.90;;;;;;4817247;29;20057;-91
2022/07/30 01:46:03;;;;;;;0.20;0.20;;;13.80;99.90;;;;;;4811347;29;20255;-90
2022/07/30 01:48:31;;;;;;;0.30;0.30;;;13.80;99.90;;;;;;4811002;29;20046;-90
2022/07/30 01:51:03;;;;;;;0.30;0.30;;;13.70;99.90;;;;;;4808174;29;20050;-91
2022/07/30 01:53:31;;;;;;;0.43;0.30;;;13.80;99.90;;;;;;4811301;29;20524;-90
2022/07/30 01:55:59;;;;;;;0.47;0.40;;;13.70;99.90;;;;;;4811288;29;20100;-90
2022/07/30 01:58:28;;;;;;;0.20;0.20;;;13.60;99.90;;;;;;4808198;29;20057;-90
2022/07/30 02:00:55;;;;;;;0.30;0.30;;;13.70;99.90;;;;;;4809922;29;20046;-90
2022/07/30 02:03:21;;;;;;;0.40;0.40;;;13.60;99.90;;;;;;4811212;29;20057;-90
2022/07/30 02:05:54;;;;;;;0.40;0.40;;;13.50;99.90;;;;;;4809252;29;20045;-91
2022/07/30 02:09:03;;;;;;;0.20;0.20;;;13.50;99.90;;;;;;4808261;29;20137;-91
2022/07/30 02:14:28;;;;;;;0.30;0.30;;;13.40;99.90;;;;;;4826190;29;20061;-90
2022/07/30 02:17:00;;;;;;;0.10;0.10;;;12.60;99.90;;;;;;4810531;29;20050;-90
2022/07/30 02:19:39;;;;;;;0.20;0.20;;;13.40;99.90;;;;;;4811069;29;20061;-90
2022/07/30 02:22:09;;;;;;;0.35;0.35;;;13.30;99.90;;;;;;4807306;29;20081;-91
2022/07/30 02:24:37;;;;;;;0.30;0.30;;;13.30;99.90;;;;;;4841392;29;20104;-90
2022/07/30 02:27:09;;;;;;;0.43;0.30;;;13.20;99.90;;;;;;4810380;29;20046;-89
2022/07/30 02:29:40;;;;;;;0.60;0.40;;;12.90;99.90;;;;;;4810763;29;20071;-90
2022/07/30 02:32:09;;;;;;;0.75;0.50;;;13.20;99.90;;;;;;4807738;29;20627;-90
2022/07/30 02:34:38;;;;;;;0.68;0.38;;;13.10;99.90;;;;;;4804138;29;20127;-90
2022/07/30 02:37:06;;;;;;;0.32;0.32;;;13.20;99.90;;;;;;4810579;29;20521;-90
2022/07/30 02:39:35;;;;;;;0.63;0.20;;;13.10;99.90;;;;;;4810544;29;20049;-90
2022/07/30 02:42:06;;;;;;;0.45;0.30;;;13.10;99.90;;;;;;4810170;29;20129;-90
2022/07/30 02:44:34;;;;;;;0.25;0.25;;;13.10;99.90;;;;;;4815531;29;20062;-90
2022/07/30 02:47:06;;;;;;;1.13;0.43;;;13.10;99.90;;;;;;4810912;29;20042;-90
2022/07/30 02:49:34;;;;;;;0.43;0.20;;;13.10;99.90;;;;;;4810591;29;20058;-90
2022/07/30 02:52:04;;;;;;;0.28;0.28;;;13.00;99.90;;;;;;4795203;29;20061;-90
2022/07/30 02:54:30;;;;;;;0.50;0.50;;;13.10;99.90;;;;;;4811556;29;20053;-90
2022/07/30 02:57:01;;;;;;;0.40;0.32;;;12.40;99.90;;;;;;4810277;29;20100;-90
2022/07/30 02:59:29;;;;;;;1.00;0.50;;;13.10;99.90;;;;;;4810992;29;20042;-90
2022/07/30 03:01:56;;;;;;;0.85;0.80;;;13.10;99.90;;;;;;4810541;29;20057;-90
2022/07/30 03:04:24;;;;;;;1.95;0.60;;;13.00;99.90;;;;;;4810319;29;20053;-89
2022/07/30 03:06:51;;;;;;;0.25;0.20;;;13.00;99.90;;;;;;4809617;29;20094;-93
2022/07/30 03:09:17;;;;;;;0.38;0.30;;;12.90;99.90;;;;;;4795441;29;20524;-89
2022/07/30 03:11:57;;;;;;;0.20;0.20;;;12.90;99.90;;;;;;4807111;29;20051;-89
2022/07/30 03:14:23;;;;;;;0.30;0.30;;;12.90;99.90;;;;;;4807440;29;20504;-89
2022/07/30 03:16:56;;;;;;;0.57;0.57;;;12.90;99.90;;;;;;4805067;29;20050;-89
2022/07/30 03:19:24;;;;;;;0.25;0.22;;;12.90;99.90;;;;;;4810767;29;20385;-89
2022/07/30 03:21:54;;;;;;;0.68;0.55;;;12.90;99.90;;;;;;4810493;29;20058;-89
2022/07/30 03:24:23;;;;;;;1.27;0.75;;;12.90;99.90;;;;;;4808477;29;20498;-90
2022/07/30 03:26:56;;;;;;;1.45;1.35;;;12.90;99.90;;;;;;4809730;29;20052;-90
2022/07/30 03:29:25;;;;;;;1.02;0.93;;;12.90;99.90;;;;;;4810833;29;20054;-90
2022/07/30 03:31:54;;;;;;;3.28;1.48;;;12.90;99.90;;;;;;4807462;29;20080;-90
2022/07/30 03:34:21;;;;;;;1.40;1.30;;;13.00;99.90;;;;;;4809912;29;20536;-90
2022/07/30 03:36:47;;;;;;;1.23;1.02;;;12.00;99.90;;;;;;4807407;29;20057;-90
2022/07/30 03:39:14;;;;;;;2.33;1.50;;;13.00;99.90;;;;;;4807366;29;20187;-90
2022/07/30 03:41:42;;;;;;;1.50;1.40;;;13.00;99.90;;;;;;4821719;29;20050;-90
2022/07/30 03:44:09;;;;;;;1.75;1.48;;;13.00;99.90;;;;;;4810154;29;20137;-91
2022/07/30 03:46:43;;;;;;;2.13;1.52;;;13.00;99.90;;;;;;4825211;29;20042;-90
2022/07/30 03:49:10;;;;;;;1.10;1.00;;;12.90;99.90;;;;;;4828315;29;20106;-90
2022/07/30 03:51:36;;;;;;;1.08;0.88;;;12.90;99.90;;;;;;4798719;29;20052;-90
2022/07/30 03:54:08;;;;;;;2.08;1.88;;;13.00;99.90;;;;;;4813383;29;20060;-91
2022/07/30 03:56:34;;;;;;;1.27;1.02;;;12.90;99.90;;;;;;4813734;29;20506;-90
2022/07/30 03:59:03;;;;;;;2.15;1.23;;;12.80;99.90;;;;;;4812856;29;20451;-93
2022/07/30 04:01:29;;;;;;;1.13;1.02;;;12.90;99.90;;;;;;4825766;29;20065;-90
2022/07/30 04:04:05;;;;;;;1.07;0.90;;;12.80;99.90;;;;;;4816599;29;20054;-92
2022/07/30 04:06:31;;;;;;;0.32;0.32;;;12.80;99.90;;;;;;4813559;29;20401;-90
2022/07/30 04:09:01;;;;;;;0.40;0.40;;;12.80;99.90;;;;;;4813135;29;20042;-92
2022/07/30 04:11:29;;;;;;;0.40;0.35;;;12.80;99.90;;;;;;4798362;29;20101;-90
2022/07/30 04:13:55;;;;;;;0.38;0.38;;;12.70;99.90;;;;;;4824901;29;20569;-90
2022/07/30 04:16:56;;;;;;;0.37;0.37;;;12.80;99.90;;;;;;4835691;29;20202;-90
2022/07/30 04:19:28;;;;;;;0.52;0.52;;;12.70;99.90;;;;;;4812406;29;20062;-90
2022/07/30 04:21:55;;;;;;;0.40;0.38;;;12.70;99.90;;;;;;4813259;29;20172;-91
2022/07/30 04:24:23;;;;;;;0.20;0.20;;;12.10;99.90;;;;;;4802637;29;20524;-90
2022/07/30 04:26:52;;;;;;;0.47;0.35;;;12.70;99.90;;;;;;4809897;29;20486;-90
2022/07/30 04:29:18;;;;;;;1.02;0.43;;;12.60;99.90;;;;;;4802858;29;20489;-90
2022/07/30 04:31:50;;;;;;;0.40;0.40;;;12.60;99.90;;;;;;4812423;29;20057;-90
2022/07/30 04:34:17;;;;;;;0.50;0.38;;;12.60;99.90;;;;;;4812659;29;20058;-89
2022/07/30 04:36:54;;;;;;;0.70;0.50;;;12.60;99.90;;;;;;4809728;29;20050;-90
2022/07/30 04:39:20;;;;;;;1.23;0.50;;;12.70;99.90;;;;;;4827758;29;20054;-90
2022/07/30 04:41:46;;;;;;;0.50;0.50;;;12.70;99.90;;;;;;4811630;29;20050;-90
2022/07/30 04:44:12;;;;;;;0.30;0.30;;;11.80;99.90;;;;;;4812188;29;20085;-90
2022/07/30 04:46:38;;;;;;;0.43;0.43;;;12.70;99.90;;;;;;4827098;29;20125;-90
2022/07/30 04:49:04;;;;;;;1.50;0.40;;;12.90;99.90;;;;;;4796554;29;20850;-94
2022/07/30 04:51:35;;;;;;;0.47;0.47;;;12.80;99.90;;;;;;4811847;29;20050;-90
2022/07/30 04:54:04;;;;;;;0.45;0.45;;;12.70;99.90;;;;;;4811744;29;20054;-91
2022/07/30 04:56:32;;;;;;;0.60;0.50;;;12.80;99.90;;;;;;4812231;29;20046;-90
2022/07/30 04:58:59;;;;;;;0.43;0.43;;;12.90;99.90;;;;;;4812009;29;20050;-90
2022/07/30 05:01:30;;;;;;;0.20;0.20;;;13.00;99.90;;;;;;4828599;29;20050;-90
2022/07/30 05:03:57;;;;;;;1.00;0.60;;;13.00;99.90;;;;;;4803820;29;20140;-90
2022/07/30 05:06:27;;;;;;;0.45;0.28;;;13.10;99.90;;;;;;4810844;29;20054;-90
2022/07/30 05:08:57;;;;;;;1.10;0.55;;;13.20;99.90;;;;;;4812713;29;20476;-90
2022/07/30 05:11:26;;;;;;;1.40;0.60;;;12.50;99.90;;;;;;4812416;29;20057;-90
2022/07/30 05:13:53;;;;;;;0.97;0.60;;;13.40;99.90;;;;;;4811531;29;20060;-90
2022/07/30 05:16:21;;;;;;;;;;;13.40;99.90;;;;;;4811760;29;20118;-91
2022/07/30 05:18:46;;;;;;;;;;;13.60;99.90;;;;;;4796667;29;20368;-90
2022/07/30 05:21:15;;;;;;;0.73;0.50;;;13.80;99.90;;;;;;4812006;29;19925;-91
2022/07/30 05:23:44;;;;;;;0.50;0.50;;;13.80;99.90;;;;;;4810135;29;20049;-90
2022/07/30 05:26:10;;;;;;;0.40;0.40;;;13.90;99.90;;;;;;4810093;29;20129;-94
2022/07/30 05:28:35;;;;;;;0.40;0.40;;;14.10;99.90;;;;;;4812277;29;20137;-90
2022/07/30 05:31:09;;;;;;;0.83;0.30;;;14.10;99.90;;;;;;4811738;29;20499;-90
2022/07/30 05:33:37;;;;;;;0.30;0.30;;;14.30;99.90;;;;;;4796985;29;20311;-91
2022/07/30 05:36:08;;;;;;;0.98;0.60;;;14.30;99.90;;;;;;4809326;29;20085;-92
2022/07/30 05:38:34;;;;;;;0.52;0.50;;;14.50;99.90;;;;;;4811725;29;20049;-91
2022/07/30 05:41:10;;;;;;;0.30;0.30;;;14.60;99.90;;;;;;4796711;29;20081;-91
2022/07/30 05:43:36;;;;;;;0.28;0.28;;;14.70;99.90;;;;;;4810621;29;20081;-91
2022/07/30 05:46:04;;;;;;;0.28;0.28;;;14.80;99.90;;;;;;4826747;29;20489;-90
2022/07/30 05:48:34;;;;;;;0.35;0.32;;;15.00;99.90;;;;;;4795884;29;20110;-92
2022/07/30 05:51:00;;;;;;;0.55;0.30;;;15.10;99.90;;;;;;4796907;29;20071;-90
2022/07/30 05:53:38;;;;;;;;;;;;;;;;;;;;;
2022/07/30 05:56:04;;;;;;;0.40;0.40;;;15.30;99.90;;;;;;4826907;29;20498;-90
2022/07/30 05:58:30;;;;;;;0.30;0.30;;;15.00;99.90;;;;;;4810843;29;20086;-91
2022/07/30 06:00:56;;;;;;;0.20;0.20;;;15.70;99.90;;;;;;4810948;29;20057;-90
2022/07/30 06:03:25;;;;;;;0.85;0.47;;;15.80;99.90;;;;;;4826184;29;20060;-90
2022/07/30 06:05:53;;;;;;;0.65;0.47;;;15.90;99.90;;;;;;4792295;29;20125;-90
2022/07/30 06:08:19;;;;;;;0.50;0.28;;;15.90;99.90;;;;;;4795811;29;20498;-90
2022/07/30 06:10:48;;;;;;;0.65;0.40;;;16.10;99.90;;;;;;4811133;29;20130;-90
2022/07/30 06:13:21;;;;;;;0.60;0.60;;;16.10;99.90;;;;;;4830586;29;20132;-92
2022/07/30 06:32:56;;;;;;;0.40;0.40;;;17.30;99.90;;;;;;5589905;23;20071;-95
2022/07/30 06:35:56;;;;;;;;;;;;;;;;;;;;;
2022/07/30 06:39:06;;;;;;;;;;;;;;;;;;;;;
2022/07/30 06:41:59;;;;;;;0.30;0.30;;;18.10;99.90;;;;;;4831389;29;20053;-96
2022/07/30 06:44:31;;;;;;;0.17;0.15;;;17.70;99.90;;;;;;4864704;29;20065;-88
2022/07/30 06:46:58;;;;;;;0.30;0.30;;;17.80;99.90;;;;;;4864368;29;20138;-93
2022/07/30 06:49:26;;;;;;;0.63;0.10;;;18.00;99.90;;;;;;4846421;29;20048;-90
2022/07/30 06:51:54;;;;;;;0.55;0.40;;;18.00;99.90;;;;;;4831765;29;20113;-92
2022/07/30 06:54:23;;;;;;;0.52;0.20;;;18.10;99.90;;;;;;4846408;29;20569;-91
2022/07/30 06:56:51;;;;;;;0.30;0.10;;;18.00;99.90;;;;;;4829605;29;20045;-91
2022/07/30 06:59:17;;;;;;;0.73;0.25;;;17.90;99.90;;;;;;4829468;29;20484;-90
2022/07/30 07:01:52;;;;;;;0.10;0.10;;;18.00;99.90;;;;;;4836761;29;20084;-91
2022/07/30 07:04:18;;;;;;;0.85;0.43;;;17.50;99.90;;;;;;4817968;29;20045;-87
2022/07/30 07:06:54;;;;;;;0.52;0.10;;;18.10;99.90;;;;;;4862148;29;20676;-89
2022/07/30 07:09:22;;;;;;;0.22;0.20;;;18.00;99.90;;;;;;4839012;29;20428;-94
2022/07/30 07:11:50;;;;;;;0.10;0.10;;;18.00;99.90;;;;;;4830491;29;20440;-93
2022/07/30 07:14:16;;;;;;;0.38;0.10;;;18.00;99.90;;;;;;4847478;29;20053;-93
2022/07/30 07:16:52;;;;;;;0.30;0.22;;;18.10;99.90;;;;;;4858549;29;20052;-94
2022/07/30 07:27:22;;;;;;;0.10;0.10;;;17.90;99.90;;;;;;4823533;29;20552;-91
2022/07/30 07:33:16;;;;;;;0.30;0.20;;;18.40;99.90;;;;;;4866416;29;20060;-93
2022/07/30 07:35:44;;;;;;;0.10;0.10;;;19.00;99.90;;;;;;4862844;29;20509;-95
2022/07/30 07:38:21;;;;;;;0.45;0.32;;;18.40;99.90;;;;;;4832950;29;20056;-91
2022/07/30 07:40:49;;;;;;;0.95;0.30;;;19.30;99.90;;;;;;4856258;29;20050;-93
2022/07/30 07:43:20;;;;;;;0.50;0.30;;;19.40;99.90;;;;;;4848196;29;20512;-91
2022/07/30 07:46:17;;;;;;;0.73;0.40;;;18.70;99.90;;;;;;4846374;29;20037;-93
2022/07/30 07:48:45;;;;;;;0.35;0.10;;;19.20;99.90;;;;;;4833223;29;20053;-90
2022/07/30 07:51:14;;;;;;;0.68;0.40;;;19.60;99.90;;;;;;4842522;29;20057;-92
2022/07/30 07:53:45;;;;;;;0.50;0.28;;;19.70;99.90;;;;;;4851283;29;20131;-91
2022/07/30 07:56:13;;;;;;;0.30;0.30;;;19.80;99.90;;;;;;4831332;29;20049;-91
2022/07/30 07:58:56;;;;;;;0.15;0.15;;;19.90;99.90;;;;;;4833242;29;20053;-91
2022/07/30 08:01:45;;;;;;;1.15;0.50;;;20.80;99.90;;;;;;4826271;29;20492;-91
2022/07/30 08:04:20;;;;;;;;;;;20.00;99.90;;;;;;4833127;29;20504;-91
2022/07/30 08:13:32;;;;;;;0.40;0.30;;;20.70;99.90;;;;;;4839193;29;20049;-91
2022/07/30 08:16:17;;;;;;;0.28;0.25;;;20.10;99.90;;;;;;4845587;29;20041;-92
2022/07/30 08:18:46;;;;;;;0.98;0.47;;;19.30;99.90;;;;;;4847898;29;20053;-91
2022/07/30 08:21:14;;;;;;;1.35;0.50;;;20.10;99.90;;;;;;4848451;29;20504;-91
2022/07/30 08:23:40;;;;;;;0.32;0.20;;;20.20;99.90;;;;;;4847552;29;20404;-91
2022/07/30 08:26:16;;;;;;;;;;;19.20;99.90;;;;;;4847648;29;20037;-93
2022/07/30 08:29:29;;;;;;;0.47;0.32;;;20.30;99.90;;;;;;4850075;29;20006;-92
2022/07/30 08:32:09;;;;;;;0.30;0.30;;;20.30;99.90;;;;;;4850735;29;20128;-92
2022/07/30 08:34:45;;;;;;;0.30;0.25;;;20.30;99.90;;;;;;4836405;29;20423;-95
2022/07/30 08:37:44;;;;;;;;;;;;;;;;;;;;;
2022/07/30 08:40:11;;;;;;;0.10;0.10;;;20.60;99.90;;;;;;4859226;29;20412;-90
2022/07/30 08:42:43;;;;;;;0.35;0.35;;;19.60;99.90;;;;;;4834505;29;20048;-91
2022/07/30 08:45:33;;;;;;;0.52;0.20;;;20.20;99.90;;;;;;4846954;29;20472;-91
2022/07/30 08:48:00;;;;;;;0.30;0.20;;;20.70;99.90;;;;;;4846751;29;20052;-91
2022/07/30 08:50:47;;;;;;;0.15;0.15;;;20.70;99.90;;;;;;4843633;29;20053;-91
2022/07/30 08:53:31;;;;;;;0.13;0.13;;;20.70;99.90;;;;;;4867212;29;20072;-92
2022/07/30 08:55:57;;;;;;;0.45;0.20;;;20.80;99.90;;;;;;4830863;29;20101;-91
2022/07/30 08:58:34;;;;;;;0.20;0.20;;;20.80;99.90;;;;;;4848095;29;20041;-93
2022/07/30 09:01:08;;;;;;;0.13;0.08;;;20.90;99.90;;;;;;4832214;29;20477;-89
2022/07/30 09:03:40;;;;;;;0.20;0.20;;;20.90;99.90;;;;;;4849297;29;20049;-90
2022/07/30 09:06:09;;;;;;;0.20;0.20;;;21.00;99.90;;;;;;4848300;29;20052;-91
2022/07/30 09:08:35;;;;;;;1.17;0.30;;;21.10;99.90;;;;;;4849029;29;20731;-91
2022/07/30 09:11:00;;;;;;;0.10;0.10;;;21.20;99.90;;;;;;4846121;29;20120;-90
2022/07/30 09:13:29;;;;;;;0.10;0.10;;;21.20;99.90;;;;;;4831110;29;20132;-90
2022/07/30 09:15:56;;;;;;;0.28;0.10;;;21.30;99.90;;;;;;4845660;29;20141;-90
2022/07/30 09:18:33;;;;;;;0.15;0.15;;;21.40;99.90;;;;;;4847366;29;20091;-90
2022/07/30 09:21:13;;;;;;;0.20;0.20;;;21.40;99.90;;;;;;4848547;29;20041;-88
2022/07/30 09:23:39;;;;;;;0.10;0.10;;;21.50;99.90;;;;;;4848170;29;20153;-91
2022/07/30 09:26:07;;;;;;;;;;;21.60;99.90;;;;;;4835417;29;20576;-92
2022/07/30 09:28:33;;;;;;;0.10;0.10;;;21.70;99.90;;;;;;4831109;29;20014;-94
2022/07/30 09:30:59;;;;;;;0.20;0.20;;;21.60;99.90;;;;;;4830537;29;20053;-93
2022/07/30 09:33:41;;;;;;;0.10;0.10;;;21.60;99.90;;;;;;4830439;29;20500;-93
2022/07/30 09:36:11;;;;;;;0.10;0.10;;;21.60;99.90;;;;;;4830182;29;20060;-92
2022/07/30 09:38:50;;;;;;;0.10;0.10;;;21.60;99.90;;;;;;4830747;29;20056;-93
2022/07/30 09:41:18;;;;;;;0.10;0.10;;;21.60;99.90;;;;;;4830621;29;20053;-92
2022/07/30 09:43:51;;;;;;;0.45;0.40;;;21.60;99.90;;;;;;4830286;29;20057;-92
2022/07/30 09:46:18;;;;;;;0.20;0.20;;;21.70;99.90;;;;;;4830040;29;20041;-92
2022/07/30 09:48:49;;;;;;;0.28;0.20;;;21.70;99.90;;;;;;4830749;29;20059;-93
2022/07/30 09:51:15;;;;;;;0.20;0.20;;;22.60;99.90;;;;;;4835445;29;20055;-92
2022/07/30 09:53:58;;;;;;;0.47;0.20;;;21.80;99.90;;;;;;4828261;29;20049;-91
2022/07/30 09:56:30;;;;;;;0.22;0.22;;;21.90;99.90;;;;;;4830832;29;20120;-92
2022/07/30 09:58:56;;;;;;;0.10;0.10;;;21.90;99.90;;;;;;4829930;29;20508;-92
2022/07/30 10:01:27;;;;;;;0.10;0.10;;;21.90;99.90;;;;;;4843443;29;20045;-95
2022/07/30 10:03:54;;;;;;;0.10;0.10;;;21.90;99.90;;;;;;4848962;29;20037;-95
2022/07/30 10:06:40;;;;;;;0.20;0.20;;;22.10;99.90;;;;;;4837597;29;20041;-93
2022/07/30 10:09:09;;;;;;;0.20;0.20;;;22.10;99.90;;;;;;4836403;29;20050;-95
2022/07/30 10:11:36;;;;;;;0.25;0.25;;;22.10;99.90;;;;;;4848009;29;20063;-93
2022/07/30 10:14:02;;;;;;;0.17;0.17;;;22.20;99.90;;;;;;4846806;29;20501;-94
2022/07/30 10:16:31;;;;;;;0.10;0.10;;;22.30;99.90;;;;;;4846647;29;20052;-94
2022/07/30 10:18:59;;;;;;;0.15;0.15;;;22.40;99.90;;;;;;4849169;29;20052;-93
2022/07/30 10:21:26;;;;;;;0.10;0.10;;;21.70;99.90;;;;;;4856023;29;20046;-94
2022/07/30 10:23:55;;;;;;;0.10;0.10;;;22.40;99.90;;;;;;4847811;29;20076;-95
2022/07/30 10:26:21;;;;;;;0.10;0.10;;;22.40;99.90;;;;;;4830534;29;20038;-92
2022/07/30 10:28:49;;;;;;;0.10;0.10;;;22.40;99.90;;;;;;4831206;29;20056;-92
2022/07/30 10:31:15;;;;;;;0.22;0.20;;;22.40;99.90;;;;;;4837830;29;20052;-91
2022/07/30 10:33:41;;;;;;;0.10;0.10;;;22.50;99.90;;;;;;4829585;29;20390;-90
2022/07/30 10:36:13;;;;;;;0.20;0.20;;;22.50;99.90;;;;;;4828001;29;20073;-91
2022/07/30 10:38:42;;;;;;;0.10;0.10;;;22.60;99.90;;;;;;4831573;29;20406;-93
2022/07/30 10:41:12;;;;;;;0.20;0.20;;;22.60;99.90;;;;;;4837929;29;20053;-92
2022/07/30 10:44:08;;;;;;;0.10;0.10;;;22.70;99.90;;;;;;4848837;29;20052;-95
2022/07/30 10:46:53;;;;;;;0.00;0.00;;;22.70;99.90;;;;;;4860605;29;20040;-95
2022/07/30 10:49:26;;;;;;;0.20;0.20;;;21.90;99.90;;;;;;4856795;29;20045;-95
2022/07/30 10:52:12;;;;;;;0.30;0.20;;;22.70;99.90;;;;;;4869129;29;20046;-96
2022/07/30 10:54:46;;;;;;;0.07;0.07;;;22.70;99.90;;;;;;4851291;29;20132;-96
2022/07/30 10:57:19;;;;;;;0.30;0.30;;;22.80;99.90;;;;;;4847180;29;20080;-94
2022/07/30 10:59:48;;;;;;;0.10;0.10;;;22.90;99.90;;;;;;4860089;29;20061;-95
2022/07/30 11:02:31;;;;;;;0.13;0.13;;;22.90;99.90;;;;;;4848734;29;20049;-96
2022/07/30 11:05:19;;;;;;;0.10;0.10;;;23.00;99.90;;;;;;4849241;29;20133;-94
2022/07/30 11:07:49;;;;;;;0.15;0.15;;;23.20;99.90;;;;;;4848963;29;20118;-95
2022/07/30 11:10:40;;;;;;;0.32;0.20;;;23.20;99.90;;;;;;4825070;29;20061;-95
2022/07/30 11:13:06;;;;;;;0.38;0.30;;;23.20;99.90;;;;;;4848024;29;20057;-93
2022/07/30 11:16:02;;;;;;;0.38;0.35;;;23.20;99.90;;;;;;4867147;29;20055;-93
2022/07/30 11:18:30;;;;;;;0.38;0.28;;;23.20;99.90;;;;;;4829492;29;20382;-93
2022/07/30 11:21:18;;;;;;;0.17;0.17;;;23.20;99.90;;;;;;4832414;29;20049;-93
2022/07/30 11:23:47;;;;;;;0.10;0.10;;;23.20;99.90;;;;;;4846311;29;20498;-94
2022/07/30 11:29:38;;;;;;;0.17;0.17;;;23.20;99.90;;;;;;4844450;29;20064;-89
2022/07/30 11:33:02;;;;;;;0.20;0.20;;;23.40;99.90;;;;;;4844629;29;20137;-88
2022/07/30 11:39:54;;;;;;;0.10;0.10;;;23.50;99.90;;;;;;4842359;29;20392;-89
2022/07/30 11:42:27;;;;;;;0.17;0.17;;;23.60;99.90;;;;;;4826321;29;20521;-89
2022/07/30 11:45:29;;;;;;;;;;;;;;;;;;;;;
2022/07/30 11:47:56;;;;;;;0.10;0.10;;;23.30;99.90;;;;;;4827616;29;20073;-91
2022/07/30 11:50:55;;;;;;;0.15;0.15;;;23.10;99.90;;;;;;4825240;29;20062;-93
2022/07/30 11:53:35;;;;;;;0.35;0.35;;;23.80;99.90;;;;;;4822519;29;20053;-93
2022/07/30 11:56:14;;;;;;;;;;;;;;;;;;;;;
2022/07/30 11:58:41;;;;;;;0.20;0.20;;;24.30;99.90;;;;;;4836335;29;20046;-91
2022/07/30 12:01:13;;;;;;;;;;;24.00;99.90;;;;;;4837181;29;21062;-93
2022/07/30 12:03:41;;;;;;;0.20;0.20;;;24.10;99.90;;;;;;4828666;29;20031;-95
2022/07/30 12:06:23;;;;;;;0.15;0.15;;;24.10;99.90;;;;;;4846948;29;20464;-93
2022/07/30 12:12:33;;;;;;;0.10;0.10;;;24.00;99.90;;;;;;4823701;29;20057;-95
2022/07/30 12:14:59;;;;;;;0.00;0.00;;;24.90;99.90;;;;;;4834199;29;20140;-94
2022/07/30 12:17:50;;;;;;;0.28;0.10;;;23.30;99.90;;;;;;4821404;29;20183;-94
2022/07/30 12:27:53;;;;;;;0.03;0.03;;;24.20;99.90;;;;;;4840934;29;20061;-94
2022/07/30 12:34:59;;;;;;;;;;;;;;;;;;;;;
2022/07/30 12:37:44;;;;;;;;;;;;;;;;;;;;;
2022/07/30 12:40:17;;;;;;;0.00;0.00;;;24.40;99.90;;;;;;4826917;29;20137;-94
2022/07/30 12:47:12;;;;;;;;;;;;;;;;;;;;;
2022/07/30 12:50:32;;;;;;;0.10;0.10;;;24.50;99.90;;;;;;4803070;29;20120;-94
2022/07/30 12:53:37;;;;;;;;;;;;;;;;;;;;;
2022/07/30 12:56:54;;;;;;;0.43;0.10;;;24.30;99.90;;;;;;4844799;29;20057;-93
2022/07/30 13:00:39;;;;;;;;;;;;;;;;;;;;;
2022/07/30 13:06:28;;;;;;;0.10;0.10;;;24.50;99.90;;;;;;4838759;29;20069;-92
2022/07/30 13:08:58;;;;;;;0.10;0.10;;;24.50;99.90;;;;;;4842227;29;20042;-92
2022/07/30 13:11:45;;;;;;;0.10;0.10;;;24.40;99.90;;;;;;4837975;29;20049;-92
2022/07/30 13:14:40;;;;;;;0.20;0.20;;;24.50;99.90;;;;;;4827466;29;20405;-92
2022/07/30 13:20:01;;;;;;;0.05;0.05;;;24.70;99.90;;;;;;4803772;29;20057;-92
2022/07/30 13:22:30;;;;;;;0.00;0.00;;;24.80;99.90;;;;;;4826980;29;20054;-92
2022/07/30 13:24:59;;;;;;;0.00;0.00;;;24.60;99.90;;;;;;4838787;29;20456;-90
2022/07/30 13:27:25;;;;;;;0.10;0.10;;;24.70;99.90;;;;;;4830727;29;20046;-95
2022/07/30 13:29:50;;;;;;;0.30;0.30;;;24.90;99.90;;;;;;4839817;29;20054;-94
2022/07/30 13:32:16;;;;;;;0.10;0.10;;;24.70;99.90;;;;;;4845241;29;20092;-94
2022/07/30 13:34:42;;;;;;;0.20;0.20;;;24.00;99.90;;;;;;4827437;29;20057;-95
2022/07/30 13:37:16;;;;;;;0.00;0.00;;;24.70;99.90;;;;;;4835147;29;20162;-94
2022/07/30 13:39:47;;;;;;;0.00;0.00;;;24.70;99.90;;;;;;4834710;29;20053;-92
2022/07/30 13:42:13;;;;;;;0.10;0.10;;;24.80;99.90;;;;;;4837100;29;20049;-94
2022/07/30 13:44:47;;;;;;;0.10;0.10;;;24.70;99.90;;;;;;4844798;29;20081;-94
2022/07/30 13:47:13;;;;;;;0.10;0.10;;;24.70;99.90;;;;;;4827353;29;20046;-89
2022/07/30 13:49:42;;;;;;;0.10;0.10;;;24.80;99.90;;;;;;4843748;29;20061;-91
2022/07/30 13:52:09;;;;;;;0.10;0.10;;;24.70;99.90;;;;;;4839046;29;20110;-92
2022/07/30 13:54:35;;;;;;;0.20;0.20;;;24.70;99.90;;;;;;4847715;29;20099;-91
2022/07/30 13:57:01;;;;;;;;;;;24.80;99.90;;;;;;4851964;29;20062;-91
2022/07/30 13:59:26;;;;;;;0.05;0.05;;;24.80;99.20;;;;;;4857021;29;19924;-92
2022/07/30 14:01:52;;;;;;;;;;;24.90;99.40;;;;;;4862544;29;20045;-91
2022/07/30 14:04:17;;;;;;;0.10;0.10;;;24.90;98.60;;;;;;4842083;29;20319;-90
2022/07/30 14:06:43;;;;;;;0.00;0.00;;;24.90;99.90;;;;;;4840007;29;20117;-92
2022/07/30 14:09:09;;;;;;;;;;;25.00;99.90;;;;;;4843313;29;20058;-92
2022/07/30 14:11:34;;;;;;;0.10;0.10;;;24.90;97.40;;;;;;4834624;29;19928;-92
2022/07/30 14:14:00;;;;;;;0.00;0.00;;;24.90;99.90;;;;;;4822744;29;20497;-93
2022/07/30 14:16:26;;;;;;;;;;;24.80;99.90;;;;;;4835575;29;20037;-93
2022/07/30 14:18:51;;;;;;;0.45;0.08;;;24.70;96.90;;;;;;4855541;29;20439;-93
2022/07/30 14:21:20;;;;;;;0.10;0.10;;;24.70;99.40;;;;;;4837914;29;20058;-93
2022/07/30 14:23:46;;;;;;;0.10;0.10;;;24.70;99.90;;;;;;4840910;29;20651;-93
2022/07/30 14:26:12;;;;;;;0.00;0.00;;;24.70;99.80;;;;;;4833370;29;20045;-93
2022/07/30 14:28:38;;;;;;;0.03;0.03;;;24.70;99.90;;;;;;4839245;29;20075;-89
2022/07/30 14:31:04;;;;;;;0.10;0.10;;;24.80;99.60;;;;;;4836178;29;20545;-88
2022/07/30 14:33:30;;;;;;;0.10;0.10;;;24.90;99.90;;;;;;4851269;29;20056;-93
2022/07/30 14:35:58;;;;;;;0.10;0.10;;;24.90;99.60;;;;;;4824553;29;20061;-93
2022/07/30 14:38:26;;;;;;;0.10;0.10;;;24.80;99.50;;;;;;4825717;29;20041;-94
2022/07/30 14:40:52;;;;;;;0.10;0.10;;;24.70;99.30;;;;;;4843657;29;20045;-93